KWVI/WVI METAR and TAF weather

Enter ICAO airport designator
Station Type Date Time Source
KWVI METAR 2018/12/19 02:53 UTC NOAA

KWVI 190253Z AUTO 01003KT 10SM CLR 11/10 A3032 RMK AO2 SLP268 T01110100 53004


Station Type Date Time Source
KWVI Decoded METAR 2018/12/19 02:53 UTC NOAA

WATSONVILLE MUNICIPAL AIRPORT , CA, United States (KWVI) 36-56N 121-47W 43M
Dec 18, 2018 - 09:53 PM EST / 2018.12.19 0253 UTC
Wind: from the N (010 degrees) at 3 MPH (3 KT):0
Visibility: 10 mile(s):0
Sky conditions: clear
Temperature: 52.0 F (11.1 C)
Dew Point: 50.0 F (10.0 C)
Relative Humidity: 92%
Pressure (altimeter): 30.32 in. Hg (1026 hPa)
Pressure tendency: 0.01 inches (0.4 hPa) higher than three hours ago
ob: KWVI 190253Z AUTO 01003KT 10SM CLR 11/10 A3032 RMK AO2 SLP268 T01110100 53004
cycle: 3

Station Type Date Time Source
KWVI TAF UTC NOAA

Error!


Example: see airport list